createdAt,value
2022-09-14T00:00:07.051Z,75.25
2022-09-14T00:00:41.857Z,74.82
2022-09-14T00:01:27.565Z,74.74
2022-09-14T00:01:59.478Z,74.33
2022-09-14T00:02:31.093Z,74.65
2022-09-14T00:03:02.570Z,74.51
2022-09-14T00:03:34.174Z,74.64
2022-09-14T00:04:14.744Z,74.52
2022-09-14T00:04:46.110Z,74.16
2022-09-14T00:05:17.621Z,74.17
2022-09-14T00:05:49.173Z,74.56
2022-09-14T00:06:22.121Z,74.40
2022-09-14T00:06:53.416Z,74.69
2022-09-14T00:07:25.697Z,74.85
2022-09-14T00:07:57.204Z,74.95
2022-09-14T00:08:28.501Z,74.78
2022-09-14T00:09:01.002Z,74.69
2022-09-14T00:09:32.735Z,75.10
2022-09-14T00:10:04.414Z,75.03
2022-09-14T00:10:43.723Z,74.77
2022-09-14T00:11:15.140Z,75.21
2022-09-14T00:11:47.021Z,75.31
2022-09-14T00:12:18.640Z,75.41
2022-09-14T00:12:49.964Z,75.47
2022-09-14T00:13:21.310Z,75.02
2022-09-14T00:13:53.507Z,74.94
2022-09-14T00:14:24.897Z,75.00
2022-09-14T00:14:56.501Z,74.96
2022-09-14T00:15:27.879Z,75.11
2022-09-14T00:16:04.391Z,75.29
2022-09-14T00:16:38.441Z,75.28
2022-09-14T00:17:09.785Z,74.76
2022-09-14T00:17:41.187Z,75.17
2022-09-14T00:18:12.584Z,74.80
2022-09-14T00:18:44.796Z,74.52
2022-09-14T00:19:26.534Z,74.37
2022-09-14T00:19:57.837Z,74.29
2022-09-14T00:20:30.567Z,74.59
2022-09-14T00:21:07.320Z,74.85
2022-09-14T00:21:39.609Z,74.60
2022-09-14T00:22:10.925Z,74.78
2022-09-14T00:22:42.423Z,74.21
2022-09-14T00:23:13.774Z,74.82
2022-09-14T00:23:45.380Z,74.68
2022-09-14T00:24:16.846Z,74.74
2022-09-14T00:24:48.404Z,75.42
2022-09-14T00:25:19.984Z,75.10
2022-09-14T00:25:51.556Z,74.83
2022-09-14T00:26:23.624Z,74.44
2022-09-14T00:26:55.083Z,75.26
2022-09-14T00:27:26.413Z,75.32
2022-09-14T00:27:58.119Z,75.08
2022-09-14T00:28:29.723Z,75.07
2022-09-14T00:29:04.861Z,74.64
2022-09-14T00:29:36.658Z,75.06
2022-09-14T00:30:08.516Z,74.64
2022-09-14T00:30:42.404Z,74.64
2022-09-14T00:31:14.757Z,75.21
2022-09-14T00:31:46.282Z,75.04
2022-09-14T00:32:18.006Z,75.05
2022-09-14T00:32:50.364Z,75.00
2022-09-14T00:33:21.740Z,75.50
2022-09-14T00:33:54.117Z,75.26
2022-09-14T00:34:25.735Z,75.33
2022-09-14T00:34:57.082Z,75.56
2022-09-14T00:35:28.399Z,75.04
2022-09-14T00:36:10.631Z,75.44
2022-09-14T00:36:45.232Z,75.28
2022-09-14T00:37:16.784Z,75.37
2022-09-14T00:37:51.428Z,75.19
2022-09-14T00:38:25.910Z,75.23
2022-09-14T00:38:58.414Z,74.96
2022-09-14T00:39:29.952Z,75.31
2022-09-14T00:40:01.773Z,75.39
2022-09-14T00:40:33.137Z,75.56
2022-09-14T00:41:08.501Z,75.44
2022-09-14T00:41:43.392Z,75.14
2022-09-14T00:42:19.347Z,75.04
2022-09-14T00:42:50.743Z,74.86
2022-09-14T00:43:22.105Z,74.68
2022-09-14T00:44:10.764Z,74.92
2022-09-14T00:44:42.223Z,75.01
2022-09-14T00:45:18.713Z,74.87
2022-09-14T00:45:50.100Z,75.00
2022-09-14T00:46:22.267Z,74.78
2022-09-14T00:46:56.841Z,75.21
2022-09-14T00:47:31.293Z,74.81
2022-09-14T00:48:02.642Z,74.98
2022-09-14T00:48:33.989Z,74.63
2022-09-14T00:49:12.210Z,74.69
2022-09-14T00:49:44.674Z,75.00
2022-09-14T00:50:17.514Z,74.88
2022-09-14T00:50:48.885Z,74.83
2022-09-14T00:51:21.991Z,74.64
2022-09-14T00:52:10.373Z,74.65
2022-09-14T00:52:45.446Z,74.95
2022-09-14T00:53:16.878Z,75.07
2022-09-14T00:53:48.599Z,75.46
2022-09-14T00:54:20.268Z,75.21
2022-09-14T00:54:58.131Z,75.40
2022-09-14T00:55:29.529Z,75.48
2022-09-14T00:56:01.095Z,75.41
2022-09-14T00:56:32.807Z,74.69
2022-09-14T00:57:04.429Z,74.98
2022-09-14T00:57:40.375Z,74.83
2022-09-14T00:58:11.763Z,75.58
2022-09-14T00:58:45.923Z,75.03
2022-09-14T00:59:25.568Z,75.33
2022-09-14T00:59:57.437Z,75.21
2022-09-14T01:00:30.500Z,75.34
2022-09-14T01:01:02.446Z,75.36
2022-09-14T01:01:34.179Z,75.46
2022-09-14T01:02:09.098Z,75.21
2022-09-14T01:02:41.247Z,74.83
2022-09-14T01:03:12.624Z,75.13
2022-09-14T01:03:43.955Z,74.68
2022-09-14T01:04:15.415Z,75.08
2022-09-14T01:04:48.117Z,75.43
2022-09-14T01:05:31.435Z,75.41
2022-09-14T01:06:48.214Z,75.01
2022-09-14T01:07:39.787Z,75.07
2022-09-14T01:08:28.723Z,75.45
2022-09-14T01:09:18.596Z,75.05
2022-09-14T01:10:04.328Z,75.57
2022-09-14T01:11:04.705Z,75.31
2022-09-14T01:12:09.317Z,75.09
2022-09-14T01:13:07.344Z,75.12
2022-09-14T01:14:16.771Z,74.87
2022-09-14T01:15:13.198Z,74.89
2022-09-14T01:16:02.976Z,75.22
2022-09-14T01:16:45.898Z,75.83
2022-09-14T01:17:36.457Z,75.33
2022-09-14T01:18:15.563Z,75.56
2022-09-14T01:18:55.262Z,75.20
2022-09-14T01:19:37.377Z,75.75
2022-09-14T01:20:35.229Z,75.51
2022-09-14T01:21:20.567Z,75.48
2022-09-14T01:21:56.593Z,75.45
2022-09-14T01:22:39.125Z,75.80
2022-09-14T01:23:36.527Z,75.60
2022-09-14T01:24:35.939Z,75.61
2022-09-14T01:25:27.808Z,76.09
2022-09-14T01:26:23.557Z,76.14
2022-09-14T01:27:09.862Z,75.72
2022-09-14T01:27:44.204Z,75.86
2022-09-14T01:28:39.496Z,75.99
2022-09-14T01:29:29.036Z,76.77
2022-09-14T01:30:06.604Z,76.36
2022-09-14T01:30:41.572Z,76.31
2022-09-14T01:31:28.069Z,75.98
2022-09-14T01:32:02.067Z,75.68
2022-09-14T01:33:04.364Z,75.75
2022-09-14T01:33:42.316Z,76.18
2022-09-14T01:34:45.929Z,76.00
2022-09-14T01:35:29.415Z,75.35
2022-09-14T01:36:05.099Z,75.06
2022-09-14T01:36:39.035Z,75.40
2022-09-14T01:37:19.281Z,75.32
2022-09-14T01:38:18.236Z,75.48
2022-09-14T01:38:53.922Z,75.11
2022-09-14T01:39:31.558Z,75.33
2022-09-14T01:40:36.105Z,75.33
2022-09-14T01:41:12.264Z,75.34
2022-09-14T01:41:44.147Z,75.69
2022-09-14T01:42:18.560Z,75.52
2022-09-14T01:42:54.879Z,75.50
2022-09-14T01:43:42.781Z,75.77
2022-09-14T01:44:23.341Z,75.74
2022-09-14T01:44:59.723Z,75.99
2022-09-14T01:45:33.288Z,75.89
2022-09-14T01:46:10.465Z,75.43
2022-09-14T01:46:48.020Z,75.85
2022-09-14T01:47:26.429Z,76.11
2022-09-14T01:48:02.987Z,75.96
2022-09-14T01:48:39.990Z,75.85
2022-09-14T01:49:20.636Z,75.37
2022-09-14T01:50:09.443Z,75.67
2022-09-14T01:50:47.016Z,75.86
2022-09-14T01:51:25.799Z,75.66
2022-09-14T01:52:02.607Z,75.85
2022-09-14T01:52:42.533Z,75.74
2022-09-14T01:53:34.607Z,75.72
2022-09-14T01:54:16.197Z,75.99
2022-09-14T01:54:56.974Z,76.25
2022-09-14T01:55:32.037Z,76.13
2022-09-14T01:56:20.088Z,76.12
2022-09-14T01:56:55.693Z,75.47
2022-09-14T01:57:53.304Z,75.95
2022-09-14T01:58:40.687Z,76.13
2022-09-14T01:59:19.406Z,76.10
2022-09-14T01:59:56.256Z,75.80
2022-09-14T02:00:28.232Z,76.38
2022-09-14T02:01:02.828Z,76.38
2022-09-14T02:01:46.415Z,75.72
2022-09-14T02:02:29.529Z,75.57
2022-09-14T02:03:19.736Z,75.88
2022-09-14T02:04:01.528Z,76.15
2022-09-14T02:04:58.044Z,75.92
2022-09-14T02:06:05.038Z,76.19
2022-09-14T02:06:43.479Z,76.05
2022-09-14T02:07:16.716Z,76.19
2022-09-14T02:07:48.234Z,76.05
2022-09-14T02:08:19.655Z,75.83
2022-09-14T02:08:52.003Z,75.45
2022-09-14T02:09:26.952Z,75.73
2022-09-14T02:09:59.267Z,75.39
2022-09-14T02:10:31.392Z,75.82
2022-09-14T02:11:02.839Z,75.80
2022-09-14T02:11:34.363Z,76.14
2022-09-14T02:12:06.053Z,75.95
2022-09-14T02:12:38.143Z,75.70
2022-09-14T02:13:10.051Z,75.64
2022-09-14T02:13:41.730Z,75.67
2022-09-14T02:14:13.205Z,76.32
2022-09-14T02:14:47.041Z,75.53
2022-09-14T02:15:18.727Z,75.67
2022-09-14T02:15:50.473Z,75.77
2022-09-14T02:16:23.408Z,76.05
2022-09-14T02:16:54.802Z,76.26
2022-09-14T02:17:26.348Z,76.25
2022-09-14T02:17:57.707Z,76.14
2022-09-14T02:18:29.267Z,75.80
2022-09-14T02:19:01.635Z,76.18
2022-09-14T02:19:40.757Z,76.23
2022-09-14T02:20:20.691Z,75.80
2022-09-14T02:20:56.772Z,75.83
2022-09-14T02:21:31.059Z,75.24
2022-09-14T02:22:02.379Z,75.33
2022-09-14T02:22:33.959Z,75.42
2022-09-14T02:23:06.636Z,75.10
2022-09-14T02:23:38.228Z,75.63
2022-09-14T02:24:10.663Z,75.55
2022-09-14T02:24:42.523Z,75.27
2022-09-14T02:25:14.341Z,75.49
2022-09-14T02:25:47.523Z,75.47
2022-09-14T02:26:20.425Z,75.47
2022-09-14T02:26:53.971Z,75.62
2022-09-14T02:27:25.598Z,75.71
2022-09-14T02:27:56.907Z,76.00
2022-09-14T02:28:28.315Z,75.40
2022-09-14T02:28:59.690Z,75.79
2022-09-14T02:29:31.282Z,75.99
2022-09-14T02:30:03.935Z,75.83
2022-09-14T02:30:49.099Z,76.01
2022-09-14T02:31:55.228Z,75.80
2022-09-14T02:32:42.837Z,75.23
2022-09-14T02:33:22.961Z,75.61
2022-09-14T02:34:31.707Z,75.37
2022-09-14T02:35:19.896Z,75.79
2022-09-14T02:35:55.552Z,76.13
2022-09-14T02:36:49.721Z,75.44
2022-09-14T02:37:39.496Z,75.98
2022-09-14T02:38:29.712Z,76.08
2022-09-14T02:39:45.039Z,75.85
2022-09-14T02:40:33.903Z,75.53
2022-09-14T02:41:19.002Z,75.13
2022-09-14T02:41:59.887Z,75.07
2022-09-14T02:42:43.171Z,75.36
2022-09-14T02:43:37.203Z,75.25
2022-09-14T02:44:25.914Z,75.17
2022-09-14T02:45:01.573Z,75.69
2022-09-14T02:46:06.994Z,75.16
2022-09-14T02:46:51.884Z,75.17
2022-09-14T02:47:33.139Z,75.64
2022-09-14T02:48:25.955Z,75.27
2022-09-14T02:49:06.740Z,75.83
2022-09-14T02:49:48.518Z,76.02
2022-09-14T02:50:37.051Z,75.77
2022-09-14T02:51:28.660Z,75.73
2022-09-14T02:52:13.036Z,75.66
2022-09-14T02:52:59.632Z,76.05
2022-09-14T02:53:50.287Z,76.19
2022-09-14T02:54:32.971Z,75.86
2022-09-14T02:55:10.901Z,76.26
2022-09-14T02:55:48.076Z,76.01
2022-09-14T02:56:21.004Z,76.00
2022-09-14T02:56:52.357Z,76.25
2022-09-14T02:57:24.939Z,76.03
2022-09-14T02:58:13.340Z,75.84
2022-09-14T02:58:45.566Z,75.55
2022-09-14T02:59:18.685Z,75.17
2022-09-14T02:59:50.221Z,75.38
2022-09-14T03:00:21.554Z,75.67
2022-09-14T03:00:52.954Z,75.68
2022-09-14T03:01:25.083Z,75.44
2022-09-14T03:01:58.757Z,75.92
2022-09-14T03:02:30.090Z,76.03
2022-09-14T03:03:01.493Z,75.81
2022-09-14T03:03:35.570Z,75.90
2022-09-14T03:04:07.435Z,75.98
2022-09-14T03:04:38.750Z,76.08
2022-09-14T03:05:10.243Z,76.05
2022-09-14T03:05:42.193Z,75.85
2022-09-14T03:06:14.126Z,75.99
2022-09-14T03:06:45.499Z,76.02
2022-09-14T03:07:16.882Z,75.68
2022-09-14T03:07:48.183Z,75.46
2022-09-14T03:08:19.500Z,75.44
2022-09-14T03:08:50.973Z,75.37
2022-09-14T03:09:22.396Z,75.52
2022-09-14T03:09:53.718Z,75.71
2022-09-14T03:10:25.219Z,75.46
2022-09-14T03:10:57.038Z,75.19
2022-09-14T03:11:28.414Z,75.08
2022-09-14T03:11:59.913Z,75.46
2022-09-14T03:12:31.221Z,75.07
2022-09-14T03:13:03.101Z,75.80
2022-09-14T03:13:35.749Z,75.78
2022-09-14T03:14:07.081Z,76.25
2022-09-14T03:14:38.399Z,76.01
2022-09-14T03:15:10.289Z,76.23
2022-09-14T03:15:41.630Z,75.52
2022-09-14T03:16:16.835Z,75.77
2022-09-14T03:16:48.364Z,75.75
2022-09-14T03:17:19.715Z,76.58
2022-09-14T03:17:51.769Z,76.92
2022-09-14T03:18:23.350Z,76.75
2022-09-14T03:18:54.844Z,76.62
2022-09-14T03:19:26.217Z,76.94
2022-09-14T03:19:57.627Z,76.71
2022-09-14T03:20:32.930Z,76.27
2022-09-14T03:21:06.315Z,76.68
2022-09-14T03:21:40.322Z,76.49
2022-09-14T03:22:11.816Z,76.40
2022-09-14T03:22:43.141Z,77.32
2022-09-14T03:23:14.844Z,77.24
2022-09-14T03:23:48.357Z,77.25
2022-09-14T03:24:19.881Z,76.96
2022-09-14T03:24:51.473Z,76.97
2022-09-14T03:25:25.703Z,77.26
2022-09-14T03:25:57.124Z,77.10
2022-09-14T03:26:29.650Z,77.23
2022-09-14T03:27:01.157Z,77.48
2022-09-14T03:27:32.649Z,77.65
2022-09-14T03:28:05.204Z,77.63
2022-09-14T03:28:37.235Z,77.38
2022-09-14T03:29:08.745Z,77.72
2022-09-14T03:29:40.245Z,77.69
2022-09-14T03:30:11.925Z,77.74
2022-09-14T03:30:43.424Z,77.79
2022-09-14T03:31:14.786Z,78.08
2022-09-14T03:31:46.429Z,77.90
2022-09-14T03:32:17.805Z,78.06
2022-09-14T03:32:49.618Z,78.11
2022-09-14T03:33:20.925Z,77.86
2022-09-14T03:33:55.032Z,78.54
2022-09-14T03:34:26.456Z,78.51
2022-09-14T03:34:57.876Z,78.09
2022-09-14T03:35:31.384Z,78.05
2022-09-14T03:36:14.163Z,77.92
2022-09-14T03:36:45.475Z,77.58
2022-09-14T03:37:16.855Z,77.41
2022-09-14T03:37:48.181Z,77.86
2022-09-14T03:38:19.819Z,77.43
2022-09-14T03:38:53.954Z,77.65
2022-09-14T03:39:25.265Z,78.89
2022-09-14T03:39:56.647Z,78.69
2022-09-14T03:40:28.296Z,78.85
2022-09-14T03:40:59.872Z,78.96
2022-09-14T03:41:31.244Z,78.54
2022-09-14T03:42:02.542Z,78.64
2022-09-14T03:42:33.916Z,78.56
2022-09-14T03:43:05.233Z,78.52
2022-09-14T03:43:36.813Z,78.57
2022-09-14T03:44:10.026Z,78.31
2022-09-14T03:44:41.329Z,78.54
2022-09-14T03:45:13.942Z,78.68
2022-09-14T03:45:45.309Z,78.05
2022-09-14T03:46:22.822Z,78.59
2022-09-14T03:46:54.442Z,78.14
2022-09-14T03:47:26.353Z,78.29
2022-09-14T03:47:57.716Z,78.25
2022-09-14T03:48:29.722Z,78.37
2022-09-14T03:49:01.328Z,78.02
2022-09-14T03:49:32.634Z,78.12
2022-09-14T03:50:04.433Z,78.66
2022-09-14T03:50:35.936Z,78.43
2022-09-14T03:51:09.120Z,78.51
2022-09-14T03:51:40.464Z,78.30
2022-09-14T03:52:11.781Z,78.69
2022-09-14T03:52:43.162Z,78.32
2022-09-14T03:53:14.493Z,78.30
2022-09-14T03:53:46.545Z,78.15
2022-09-14T03:54:17.920Z,78.57
2022-09-14T03:54:49.276Z,78.38
2022-09-14T03:55:20.763Z,78.73
2022-09-14T03:55:52.108Z,78.35
2022-09-14T03:56:23.887Z,78.96
2022-09-14T03:56:55.444Z,79.24
2022-09-14T03:57:26.944Z,79.50
2022-09-14T03:57:58.259Z,79.43
2022-09-14T03:58:32.919Z,79.31
2022-09-14T03:59:04.855Z,79.24
2022-09-14T03:59:39.392Z,79.74
2022-09-14T04:00:13.605Z,79.72
2022-09-14T04:00:45.572Z,79.39
2022-09-14T04:01:19.614Z,79.68
2022-09-14T04:01:51.235Z,79.98
2022-09-14T04:02:22.725Z,80.21
2022-09-14T04:02:54.090Z,80.06
2022-09-14T04:03:25.461Z,79.72
2022-09-14T04:03:56.802Z,79.60
2022-09-14T04:04:28.777Z,79.80
2022-09-14T04:05:00.310Z,79.76
2022-09-14T04:05:31.823Z,79.54
2022-09-14T04:06:07.305Z,79.73
2022-09-14T04:06:38.785Z,80.16
2022-09-14T04:07:10.302Z,80.18
2022-09-14T04:07:41.866Z,80.12
2022-09-14T04:08:13.230Z,79.49
2022-09-14T04:08:46.099Z,79.08
2022-09-14T04:09:19.148Z,80.08
2022-09-14T04:09:50.448Z,79.97
2022-09-14T04:10:21.765Z,80.20
2022-09-14T04:10:53.545Z,79.94
2022-09-14T04:11:25.480Z,80.10
2022-09-14T04:11:56.989Z,80.33
2022-09-14T04:12:28.544Z,80.15
2022-09-14T04:13:01.872Z,80.67
2022-09-14T04:13:33.266Z,80.12
2022-09-14T04:14:05.410Z,80.12
2022-09-14T04:14:36.794Z,79.82
2022-09-14T04:15:08.809Z,80.15
2022-09-14T04:15:40.476Z,79.98
2022-09-14T04:16:12.474Z,79.55
2022-09-14T04:16:44.666Z,79.36
2022-09-14T04:17:17.199Z,79.64
2022-09-14T04:17:48.606Z,79.44
2022-09-14T04:18:19.945Z,79.71
2022-09-14T04:18:51.445Z,79.99
2022-09-14T04:19:22.919Z,80.08
2022-09-14T04:19:54.214Z,80.42
2022-09-14T04:20:25.555Z,80.71
2022-09-14T04:21:08.418Z,80.29
2022-09-14T04:21:40.397Z,80.07
2022-09-14T04:22:11.889Z,80.45
2022-09-14T04:22:43.355Z,80.18
2022-09-14T04:23:14.677Z,80.45
2022-09-14T04:24:10.527Z,80.23
2022-09-14T04:24:38.115Z,80.17
2022-09-14T04:25:09.650Z,80.99
2022-09-14T04:25:40.954Z,80.33
2022-09-14T04:26:15.016Z,80.78
2022-09-14T04:26:46.783Z,80.37
2022-09-14T04:27:18.255Z,80.07
2022-09-14T04:28:04.210Z,79.92
2022-09-14T04:28:42.405Z,80.09
2022-09-14T04:29:14.746Z,80.13
2022-09-14T04:29:49.742Z,80.17
2022-09-14T04:30:21.109Z,80.42
2022-09-14T04:31:00.354Z,80.50
2022-09-14T04:31:32.882Z,80.36
2022-09-14T04:32:04.355Z,80.31
2022-09-14T04:32:35.671Z,80.26
2022-09-14T04:33:06.977Z,80.36
2022-09-14T04:33:40.715Z,80.45
2022-09-14T04:34:13.904Z,80.79
2022-09-14T04:34:45.198Z,80.48
2022-09-14T04:35:16.535Z,80.54
2022-09-14T04:35:56.573Z,80.88
2022-09-14T04:36:30.760Z,80.89
2022-09-14T04:37:02.237Z,80.10
2022-09-14T04:37:33.822Z,80.46
2022-09-14T04:38:05.373Z,80.20
2022-09-14T04:38:38.409Z,80.22
2022-09-14T04:39:12.536Z,79.96
2022-09-14T04:39:43.943Z,79.93
2022-09-14T04:40:15.573Z,80.41
2022-09-14T04:40:46.926Z,79.96
2022-09-14T04:41:20.453Z,80.20
2022-09-14T04:41:51.988Z,80.09
2022-09-14T04:42:23.492Z,80.00
2022-09-14T04:42:54.990Z,80.59
2022-09-14T04:43:27.339Z,80.50
2022-09-14T04:44:00.029Z,80.74
2022-09-14T04:44:31.418Z,80.78
2022-09-14T04:45:04.223Z,81.09
2022-09-14T04:45:36.969Z,80.20
2022-09-14T04:46:11.882Z,80.35
2022-09-14T04:46:46.607Z,80.50
2022-09-14T04:47:18.463Z,80.72
2022-09-14T04:47:50.628Z,80.73
2022-09-14T04:48:22.179Z,80.58
2022-09-14T04:48:53.539Z,80.31
2022-09-14T04:49:24.952Z,79.69
2022-09-14T04:49:56.273Z,80.15
2022-09-14T04:50:27.568Z,80.41
2022-09-14T04:51:03.540Z,80.47
2022-09-14T04:51:36.669Z,80.41
2022-09-14T04:52:08.036Z,80.26
2022-09-14T04:52:39.387Z,79.64
2022-09-14T04:53:11.700Z,79.97
2022-09-14T04:53:44.358Z,80.75
2022-09-14T04:54:17.548Z,80.32
2022-09-14T04:54:49.040Z,80.87
2022-09-14T04:55:20.346Z,80.58
2022-09-14T04:55:51.653Z,80.92
2022-09-14T04:56:24.256Z,80.88
2022-09-14T04:56:55.840Z,80.78
2022-09-14T04:57:27.761Z,81.04
2022-09-14T04:57:59.252Z,80.44
2022-09-14T04:58:31.043Z,80.57
2022-09-14T04:59:04.475Z,80.67
2022-09-14T04:59:35.883Z,80.84
2022-09-14T05:00:08.013Z,81.36
2022-09-14T05:00:39.672Z,80.58
2022-09-14T05:01:14.589Z,80.17
2022-09-14T05:01:50.246Z,80.30
2022-09-14T05:02:21.700Z,80.40
2022-09-14T05:02:53.376Z,80.35
2022-09-14T05:03:24.755Z,80.36
2022-09-14T05:03:56.616Z,80.54
2022-09-14T05:04:28.149Z,80.44
2022-09-14T05:04:59.646Z,80.21
2022-09-14T05:05:34.371Z,80.58
2022-09-14T05:06:14.286Z,79.79
2022-09-14T05:06:45.833Z,80.19
2022-09-14T05:07:17.343Z,80.25
2022-09-14T05:07:48.856Z,80.04
2022-09-14T05:08:20.376Z,80.48
2022-09-14T05:08:52.908Z,80.81
2022-09-14T05:09:24.275Z,80.02
2022-09-14T05:09:55.673Z,80.49
2022-09-14T05:10:27.051Z,80.74
2022-09-14T05:10:58.924Z,80.64
2022-09-14T05:11:34.388Z,80.70
2022-09-14T05:12:06.425Z,80.77
2022-09-14T05:12:37.864Z,80.99
2022-09-14T05:13:09.213Z,81.00
2022-09-14T05:13:42.082Z,80.84
2022-09-14T05:14:14.614Z,80.63
2022-09-14T05:14:46.533Z,81.25
2022-09-14T05:15:17.939Z,81.11
2022-09-14T05:15:50.318Z,80.64
2022-09-14T05:16:25.396Z,80.88
2022-09-14T05:17:01.110Z,81.43
2022-09-14T05:17:35.168Z,81.27
2022-09-14T05:18:06.444Z,81.17
2022-09-14T05:18:37.832Z,81.61
2022-09-14T05:19:13.344Z,81.19
2022-09-14T05:19:44.651Z,81.30
2022-09-14T05:20:16.080Z,81.66
2022-09-14T05:20:47.450Z,81.37
2022-09-14T05:21:20.392Z,81.15
2022-09-14T05:21:51.690Z,81.05
2022-09-14T05:22:23.212Z,81.26
2022-09-14T05:22:54.530Z,81.31
2022-09-14T05:23:25.826Z,81.18
2022-09-14T05:24:03.306Z,81.37
2022-09-14T05:24:34.857Z,81.56
2022-09-14T05:25:06.672Z,81.41
2022-09-14T05:25:38.172Z,81.41
2022-09-14T05:26:09.683Z,81.45
2022-09-14T05:26:43.154Z,81.78
2022-09-14T05:27:14.432Z,81.71
2022-09-14T05:27:45.713Z,81.34
2022-09-14T05:28:16.994Z,81.58
2022-09-14T05:28:53.478Z,81.31
2022-09-14T05:29:25.189Z,81.28
2022-09-14T05:29:56.509Z,80.98
2022-09-14T05:30:28.076Z,81.22
2022-09-14T05:30:59.447Z,81.42
2022-09-14T05:31:32.204Z,81.45
2022-09-14T05:32:03.826Z,81.70
2022-09-14T05:32:35.140Z,81.41
2022-09-14T05:33:06.653Z,81.41
2022-09-14T05:33:38.168Z,81.19
2022-09-14T05:34:10.727Z,80.98
2022-09-14T05:34:42.039Z,81.72
2022-09-14T05:35:13.489Z,81.63
2022-09-14T05:35:45.626Z,81.68
2022-09-14T05:36:17.301Z,81.30
2022-09-14T05:36:48.773Z,81.48
2022-09-14T05:37:20.144Z,81.48
2022-09-14T05:37:51.664Z,81.42
2022-09-14T05:38:23.027Z,81.32
2022-09-14T05:38:54.943Z,81.77
2022-09-14T05:39:26.337Z,81.44
2022-09-14T05:39:57.710Z,81.49
2022-09-14T05:40:29.117Z,82.33
2022-09-14T05:41:00.556Z,81.72
2022-09-14T05:41:32.084Z,81.75
2022-09-14T05:42:03.699Z,81.47
2022-09-14T05:42:35.328Z,81.04
2022-09-14T05:43:07.096Z,81.47
2022-09-14T05:43:39.157Z,81.65
2022-09-14T05:44:10.756Z,81.94
2022-09-14T05:44:42.131Z,82.00
2022-09-14T05:45:13.497Z,81.79
2022-09-14T05:45:45.009Z,81.64
2022-09-14T05:46:20.744Z,81.78
2022-09-14T05:46:52.399Z,81.31
2022-09-14T05:47:23.888Z,81.92
2022-09-14T05:47:55.418Z,81.59
2022-09-14T05:48:26.876Z,81.32
2022-09-14T05:48:58.219Z,81.46
2022-09-14T05:49:29.554Z,81.66
2022-09-14T05:50:00.871Z,81.50
2022-09-14T05:50:33.642Z,81.17
2022-09-14T05:51:10.940Z,81.66
2022-09-14T05:51:42.268Z,81.26
2022-09-14T05:52:13.592Z,81.41
2022-09-14T05:52:45.133Z,80.94
2022-09-14T05:53:16.446Z,81.28
2022-09-14T05:53:52.162Z,81.32
2022-09-14T05:54:23.477Z,81.64
2022-09-14T05:54:54.778Z,81.12
2022-09-14T05:55:26.970Z,81.54
2022-09-14T05:56:10.289Z,80.82
2022-09-14T05:56:41.604Z,80.98
2022-09-14T05:57:13.170Z,81.56
2022-09-14T05:57:49.724Z,81.07
2022-09-14T05:58:21.153Z,81.14
2022-09-14T05:58:52.771Z,81.09
2022-09-14T05:59:24.160Z,81.15
2022-09-14T05:59:55.662Z,80.74
2022-09-14T06:00:27.600Z,81.01
2022-09-14T06:00:59.016Z,81.25
2022-09-14T06:01:32.568Z,80.81
2022-09-14T06:02:04.279Z,81.49
2022-09-14T06:02:35.659Z,81.13
2022-09-14T06:03:07.587Z,80.80
2022-09-14T06:03:39.420Z,81.28
2022-09-14T06:04:11.352Z,80.79
2022-09-14T06:04:42.867Z,81.45
2022-09-14T06:05:15.139Z,80.91
2022-09-14T06:05:46.623Z,81.13
2022-09-14T06:06:19.647Z,81.06
2022-09-14T06:07:14.573Z,81.13
2022-09-14T06:07:42.477Z,81.61
2022-09-14T06:08:13.795Z,81.00
2022-09-14T06:08:46.157Z,81.39
2022-09-14T06:09:17.461Z,81.03
2022-09-14T06:09:48.839Z,80.92
2022-09-14T06:10:21.703Z,81.25
2022-09-14T06:10:53.206Z,81.33
2022-09-14T06:11:28.332Z,80.85
2022-09-14T06:11:59.661Z,80.70
2022-09-14T06:12:31.316Z,80.72
2022-09-14T06:13:02.732Z,80.82
2022-09-14T06:13:34.952Z,80.71
2022-09-14T06:14:06.731Z,81.07
2022-09-14T06:14:38.120Z,80.83
2022-09-14T06:15:10.856Z,80.76
2022-09-14T06:15:42.230Z,80.83
2022-09-14T06:16:15.870Z,80.82
2022-09-14T06:16:47.409Z,80.52
2022-09-14T06:17:18.720Z,80.72
2022-09-14T06:17:50.018Z,80.95
2022-09-14T06:18:21.324Z,81.04
2022-09-14T06:18:54.961Z,80.84
2022-09-14T06:19:26.988Z,80.91
2022-09-14T06:20:03.495Z,80.71
2022-09-14T06:20:35.974Z,80.85
2022-09-14T06:21:09.020Z,80.60
2022-09-14T06:21:40.679Z,80.57
2022-09-14T06:22:11.999Z,80.78
2022-09-14T06:22:43.501Z,81.08
2022-09-14T06:23:14.873Z,80.40
2022-09-14T06:23:47.866Z,80.15
2022-09-14T06:24:19.448Z,80.06
2022-09-14T06:24:50.812Z,80.38
2022-09-14T06:25:22.172Z,80.29
2022-09-14T06:25:55.334Z,80.17
2022-09-14T06:26:27.044Z,80.50
2022-09-14T06:26:58.361Z,80.74
2022-09-14T06:27:29.636Z,80.37
2022-09-14T06:28:01.117Z,80.26
2022-09-14T06:28:33.493Z,80.77
2022-09-14T06:29:05.192Z,80.52
2022-09-14T06:29:36.535Z,80.70
2022-09-14T06:30:08.647Z,80.93
2022-09-14T06:30:44.203Z,80.89
2022-09-14T06:31:17.701Z,80.91
2022-09-14T06:31:49.010Z,80.91
2022-09-14T06:32:23.271Z,80.22
2022-09-14T06:32:54.853Z,80.47
2022-09-14T06:33:27.600Z,80.36
2022-09-14T06:33:59.090Z,80.14
2022-09-14T06:34:30.653Z,80.48
2022-09-14T06:35:03.628Z,79.97
2022-09-14T06:35:35.001Z,80.37
2022-09-14T06:36:12.574Z,80.87
2022-09-14T06:36:44.898Z,80.54
2022-09-14T06:37:16.430Z,80.85
2022-09-14T06:37:47.757Z,80.52
2022-09-14T06:38:19.144Z,80.61
2022-09-14T06:38:51.239Z,80.28
2022-09-14T06:39:24.792Z,80.06
2022-09-14T06:39:56.211Z,80.50
2022-09-14T06:40:28.201Z,79.22
2022-09-14T06:41:02.904Z,79.76
2022-09-14T06:41:34.325Z,79.40
2022-09-14T06:42:05.773Z,79.55
2022-09-14T06:42:37.255Z,79.53
2022-09-14T06:43:08.585Z,79.51
2022-09-14T06:43:42.025Z,79.25
2022-09-14T06:44:14.044Z,79.22
2022-09-14T06:44:47.349Z,79.37
2022-09-14T06:45:18.902Z,79.57
2022-09-14T06:45:58.089Z,79.87
2022-09-14T06:46:32.203Z,79.74
2022-09-14T06:47:04.008Z,79.58
2022-09-14T06:47:35.558Z,79.39
2022-09-14T06:48:06.884Z,79.33
2022-09-14T06:48:41.856Z,79.27
2022-09-14T06:49:20.437Z,79.07
2022-09-14T06:49:52.048Z,79.38
2022-09-14T06:50:23.726Z,79.08
2022-09-14T06:50:55.144Z,79.71
2022-09-14T06:51:29.994Z,78.89
2022-09-14T06:52:01.640Z,79.10
2022-09-14T06:52:33.880Z,79.31
2022-09-14T06:53:06.106Z,79.06
2022-09-14T06:53:37.470Z,78.78
2022-09-14T06:54:11.861Z,78.80
2022-09-14T06:54:43.159Z,78.75
2022-09-14T06:55:14.550Z,78.65
2022-09-14T06:55:45.998Z,78.44
2022-09-14T06:56:18.145Z,78.43
2022-09-14T06:56:49.524Z,78.23
2022-09-14T06:57:20.853Z,79.31
2022-09-14T06:57:52.149Z,79.35
2022-09-14T06:58:23.559Z,78.85
2022-09-14T06:58:55.131Z,78.86
2022-09-14T06:59:26.747Z,78.38
2022-09-14T06:59:58.046Z,78.94
2022-09-14T07:00:29.373Z,78.34
2022-09-14T07:01:05.956Z,78.31
2022-09-14T07:01:37.902Z,78.43
2022-09-14T07:02:11.981Z,78.27
2022-09-14T07:02:43.745Z,78.32
2022-09-14T07:03:15.194Z,78.18
2022-09-14T07:03:47.199Z,78.70
2022-09-14T07:04:18.796Z,78.79
2022-09-14T07:04:50.089Z,78.81
2022-09-14T07:05:22.253Z,79.09
2022-09-14T07:05:53.532Z,79.04
2022-09-14T07:06:27.093Z,79.38
2022-09-14T07:06:58.523Z,78.87
2022-09-14T07:07:29.818Z,78.67
2022-09-14T07:08:01.556Z,78.66
2022-09-14T07:08:37.720Z,78.61
2022-09-14T07:09:09.517Z,78.37
2022-09-14T07:09:41.134Z,79.00
2022-09-14T07:10:12.441Z,78.63
2022-09-14T07:10:44.136Z,79.33
2022-09-14T07:11:17.796Z,79.41
2022-09-14T07:11:49.192Z,79.48
2022-09-14T07:12:20.491Z,79.51
2022-09-14T07:12:51.872Z,79.47
2022-09-14T07:13:25.728Z,79.65
2022-09-14T07:14:01.765Z,79.13
2022-09-14T07:14:33.319Z,78.72
2022-09-14T07:15:13.673Z,78.76
2022-09-14T07:15:50.103Z,79.23
2022-09-14T07:16:21.784Z,79.04
2022-09-14T07:16:53.141Z,78.70
2022-09-14T07:17:24.642Z,78.78
2022-09-14T07:17:56.126Z,78.64
2022-09-14T07:18:28.424Z,78.93
2022-09-14T07:19:01.949Z,79.46
2022-09-14T07:19:33.357Z,79.48
2022-09-14T07:20:06.758Z,79.17
2022-09-14T07:20:38.066Z,79.31
2022-09-14T07:21:19.170Z,79.38
2022-09-14T07:21:50.772Z,79.21
2022-09-14T07:22:22.065Z,78.95
2022-09-14T07:22:53.436Z,79.27
2022-09-14T07:23:24.777Z,79.06
2022-09-14T07:23:56.291Z,79.12
2022-09-14T07:24:27.635Z,78.96
2022-09-14T07:24:58.960Z,78.71